sensor_id;sensor_type;location;lat;lon;timestamp;temperature;humidity
46898;DHT22;32646;50.958;6.258;2023-07-16T00:01:45;18.30;99.90
46898;DHT22;32646;50.958;6.258;2023-07-16T00:04:11;18.40;99.90
46898;DHT22;32646;50.958;6.258;2023-07-16T00:06:38;18.30;99.90
46898;DHT22;32646;50.958;6.258;2023-07-16T00:09:04;18.30;99.90
46898;DHT22;32646;50.958;6.258;2023-07-16T00:11:31;18.30;99.90
46898;DHT22;32646;50.958;6.258;2023-07-16T00:13:58;18.20;99.90
46898;DHT22;32646;50.958;6.258;2023-07-16T00:16:25;18.10;99.90
46898;DHT22;32646;50.958;6.258;2023-07-16T00:18:51;18.10;99.90
46898;DHT22;32646;50.958;6.258;2023-07-16T00:21:18;18.10;99.90
46898;DHT22;32646;50.958;6.258;2023-07-16T00:23:45;18.10;99.90
46898;DHT22;32646;50.958;6.258;2023-07-16T00:26:12;18.10;99.90
46898;DHT22;32646;50.958;6.258;2023-07-16T00:28:40;18.00;99.90
46898;DHT22;32646;50.958;6.258;2023-07-16T00:31:06;18.00;99.90
46898;DHT22;32646;50.958;6.258;2023-07-16T00:33:33;17.90;99.90
46898;DHT22;32646;50.958;6.258;2023-07-16T00:35:59;17.90;99.90
46898;DHT22;32646;50.958;6.258;2023-07-16T00:38:26;17.90;99.90
46898;DHT22;32646;50.958;6.258;2023-07-16T00:40:53;17.80;99.90
46898;DHT22;32646;50.958;6.258;2023-07-16T00:43:19;17.80;99.90
46898;DHT22;32646;50.958;6.258;2023-07-16T00:45:46;17.80;99.90
46898;DHT22;32646;50.958;6.258;2023-07-16T00:48:13;17.80;99.90
46898;DHT22;32646;50.958;6.258;2023-07-16T00:50:40;17.80;99.90
46898;DHT22;32646;50.958;6.258;2023-07-16T00:53:08;17.90;99.90
46898;DHT22;32646;50.958;6.258;2023-07-16T00:55:36;17.90;99.90
46898;DHT22;32646;50.958;6.258;2023-07-16T00:58:05;18.00;99.90
46898;DHT22;32646;50.958;6.258;2023-07-16T01:00:33;18.00;99.90
46898;DHT22;32646;50.958;6.258;2023-07-16T01:03:01;18.00;99.90
46898;DHT22;32646;50.958;6.258;2023-07-16T01:05:36;17.90;99.90
46898;DHT22;32646;50.958;6.258;2023-07-16T01:08:08;18.00;99.90
46898;DHT22;32646;50.958;6.258;2023-07-16T01:10:37;18.00;99.90
46898;DHT22;32646;50.958;6.258;2023-07-16T01:13:05;18.00;99.90
46898;DHT22;32646;50.958;6.258;2023-07-16T01:15:31;18.00;99.90
46898;DHT22;32646;50.958;6.258;2023-07-16T01:17:58;17.90;99.90
46898;DHT22;32646;50.958;6.258;2023-07-16T01:20:25;17.90;99.90
46898;DHT22;32646;50.958;6.258;2023-07-16T01:31:46;18.00;99.90
46898;DHT22;32646;50.958;6.258;2023-07-16T01:34:14;18.00;99.90
46898;DHT22;32646;50.958;6.258;2023-07-16T01:36:41;18.00;99.90
46898;DHT22;32646;50.958;6.258;2023-07-16T01:39:08;18.00;99.90
46898;DHT22;32646;50.958;6.258;2023-07-16T01:41:35;18.00;99.90
46898;DHT22;32646;50.958;6.258;2023-07-16T01:44:01;17.90;99.90
46898;DHT22;32646;50.958;6.258;2023-07-16T01:46:28;17.90;99.90
46898;DHT22;32646;50.958;6.258;2023-07-16T01:48:55;17.80;99.90
46898;DHT22;32646;50.958;6.258;2023-07-16T01:51:22;17.90;99.90
46898;DHT22;32646;50.958;6.258;2023-07-16T01:53:48;17.90;99.90
46898;DHT22;32646;50.958;6.258;2023-07-16T01:56:15;17.90;99.90
46898;DHT22;32646;50.958;6.258;2023-07-16T01:58:42;17.80;99.90
46898;DHT22;32646;50.958;6.258;2023-07-16T02:01:08;17.70;99.90
46898;DHT22;32646;50.958;6.258;2023-07-16T02:03:35;17.70;99.90
46898;DHT22;32646;50.958;6.258;2023-07-16T02:06:02;17.60;99.90
46898;DHT22;32646;50.958;6.258;2023-07-16T02:08:28;17.60;99.90
46898;DHT22;32646;50.958;6.258;2023-07-16T02:10:55;17.60;99.90
46898;DHT22;32646;50.958;6.258;2023-07-16T02:13:21;17.50;99.90
46898;DHT22;32646;50.958;6.258;2023-07-16T02:15:48;17.60;99.90
46898;DHT22;32646;50.958;6.258;2023-07-16T02:18:14;17.40;99.90
46898;DHT22;32646;50.958;6.258;2023-07-16T02:20:42;17.40;99.90
46898;DHT22;32646;50.958;6.258;2023-07-16T02:23:09;17.50;99.90
46898;DHT22;32646;50.958;6.258;2023-07-16T02:25:36;17.40;99.90
46898;DHT22;32646;50.958;6.258;2023-07-16T02:28:02;17.40;99.90
46898;DHT22;32646;50.958;6.258;2023-07-16T02:30:29;17.30;99.90
46898;DHT22;32646;50.958;6.258;2023-07-16T02:32:56;17.50;99.90
46898;DHT22;32646;50.958;6.258;2023-07-16T02:35:22;17.40;99.90
46898;DHT22;32646;50.958;6.258;2023-07-16T02:37:49;17.30;99.90
46898;DHT22;32646;50.958;6.258;2023-07-16T02:40:15;17.30;99.90
46898;DHT22;32646;50.958;6.258;2023-07-16T02:42:42;17.20;99.90
46898;DHT22;32646;50.958;6.258;2023-07-16T02:45:09;17.30;99.90
46898;DHT22;32646;50.958;6.258;2023-07-16T02:47:35;17.30;99.90
46898;DHT22;32646;50.958;6.258;2023-07-16T02:50:02;17.20;99.90
46898;DHT22;32646;50.958;6.258;2023-07-16T02:52:29;17.30;99.90
46898;DHT22;32646;50.958;6.258;2023-07-16T02:54:55;17.20;99.90
46898;DHT22;32646;50.958;6.258;2023-07-16T02:57:22;17.30;99.90
46898;DHT22;32646;50.958;6.258;2023-07-16T02:59:48;17.30;99.90
46898;DHT22;32646;50.958;6.258;2023-07-16T03:02:15;17.20;99.90
46898;DHT22;32646;50.958;6.258;2023-07-16T03:04:42;17.20;99.90
46898;DHT22;32646;50.958;6.258;2023-07-16T03:07:08;17.20;99.90
46898;DHT22;32646;50.958;6.258;2023-07-16T03:09:35;17.20;99.90
46898;DHT22;32646;50.958;6.258;2023-07-16T03:12:01;17.20;99.90
46898;DHT22;32646;50.958;6.258;2023-07-16T03:14:28;17.20;99.90
46898;DHT22;32646;50.958;6.258;2023-07-16T03:16:55;17.20;99.90
46898;DHT22;32646;50.958;6.258;2023-07-16T03:19:22;17.10;99.90
46898;DHT22;32646;50.958;6.258;2023-07-16T03:21:48;16.90;99.90
46898;DHT22;32646;50.958;6.258;2023-07-16T03:24:15;16.90;99.90
46898;DHT22;32646;50.958;6.258;2023-07-16T03:26:42;16.90;99.90
46898;DHT22;32646;50.958;6.258;2023-07-16T03:29:08;16.90;99.90
46898;DHT22;32646;50.958;6.258;2023-07-16T03:31:35;17.00;99.90
46898;DHT22;32646;50.958;6.258;2023-07-16T03:34:01;16.90;99.90
46898;DHT22;32646;50.958;6.258;2023-07-16T03:36:28;16.90;99.90
46898;DHT22;32646;50.958;6.258;2023-07-16T03:38:55;16.90;99.90
46898;DHT22;32646;50.958;6.258;2023-07-16T03:41:21;17.00;99.90
46898;DHT22;32646;50.958;6.258;2023-07-16T03:43:48;17.00;99.90
46898;DHT22;32646;50.958;6.258;2023-07-16T03:46:14;16.90;99.90
46898;DHT22;32646;50.958;6.258;2023-07-16T03:48:41;16.80;99.90
46898;DHT22;32646;50.958;6.258;2023-07-16T03:51:08;16.80;99.90
46898;DHT22;32646;50.958;6.258;2023-07-16T03:53:35;16.80;99.90
46898;DHT22;32646;50.958;6.258;2023-07-16T03:56:01;16.70;99.90
46898;DHT22;32646;50.958;6.258;2023-07-16T03:58:28;16.80;99.90
46898;DHT22;32646;50.958;6.258;2023-07-16T04:00:55;16.90;99.90
46898;DHT22;32646;50.958;6.258;2023-07-16T04:03:21;16.80;99.90
46898;DHT22;32646;50.958;6.258;2023-07-16T04:05:48;16.90;99.90
46898;DHT22;32646;50.958;6.258;2023-07-16T04:08:14;16.90;99.90
46898;DHT22;32646;50.958;6.258;2023-07-16T04:10:41;17.00;99.90
46898;DHT22;32646;50.958;6.258;2023-07-16T04:13:08;16.90;99.90
46898;DHT22;32646;50.958;6.258;2023-07-16T04:15:34;16.90;99.90
46898;DHT22;32646;50.958;6.258;2023-07-16T04:18:01;16.80;99.90
46898;DHT22;32646;50.958;6.258;2023-07-16T04:20:28;16.80;99.90
46898;DHT22;32646;50.958;6.258;2023-07-16T04:22:54;16.80;99.90
46898;DHT22;32646;50.958;6.258;2023-07-16T04:25:21;16.90;99.90
46898;DHT22;32646;50.958;6.258;2023-07-16T04:27:48;16.80;99.90
46898;DHT22;32646;50.958;6.258;2023-07-16T04:30:14;16.80;99.90
46898;DHT22;32646;50.958;6.258;2023-07-16T04:32:41;16.90;99.90
46898;DHT22;32646;50.958;6.258;2023-07-16T04:35:08;16.90;99.90
46898;DHT22;32646;50.958;6.258;2023-07-16T04:37:35;16.90;99.90
46898;DHT22;32646;50.958;6.258;2023-07-16T04:40:01;17.00;99.90
46898;DHT22;32646;50.958;6.258;2023-07-16T04:42:28;17.00;99.90
46898;DHT22;32646;50.958;6.258;2023-07-16T04:44:54;17.00;99.90
46898;DHT22;32646;50.958;6.258;2023-07-16T04:47:21;17.00;99.90
46898;DHT22;32646;50.958;6.258;2023-07-16T04:49:48;17.00;99.90
46898;DHT22;32646;50.958;6.258;2023-07-16T04:52:14;17.10;99.90
46898;DHT22;32646;50.958;6.258;2023-07-16T04:54:41;17.10;99.90
46898;DHT22;32646;50.958;6.258;2023-07-16T04:57:08;17.10;99.90
46898;DHT22;32646;50.958;6.258;2023-07-16T04:59:34;17.00;99.90
46898;DHT22;32646;50.958;6.258;2023-07-16T05:02:06;16.90;99.90
46898;DHT22;32646;50.958;6.258;2023-07-16T05:04:34;17.00;99.90
46898;DHT22;32646;50.958;6.258;2023-07-16T05:07:04;16.90;99.90
46898;DHT22;32646;50.958;6.258;2023-07-16T05:09:31;17.00;99.90
46898;DHT22;32646;50.958;6.258;2023-07-16T05:11:57;17.00;99.90
46898;DHT22;32646;50.958;6.258;2023-07-16T05:14:27;17.10;99.90
46898;DHT22;32646;50.958;6.258;2023-07-16T05:16:55;17.10;99.90
46898;DHT22;32646;50.958;6.258;2023-07-16T05:19:22;17.10;99.90
46898;DHT22;32646;50.958;6.258;2023-07-16T05:21:49;17.10;99.90
46898;DHT22;32646;50.958;6.258;2023-07-16T05:24:15;17.20;99.90
46898;DHT22;32646;50.958;6.258;2023-07-16T05:26:42;17.20;99.90
46898;DHT22;32646;50.958;6.258;2023-07-16T05:29:08;17.10;99.90
46898;DHT22;32646;50.958;6.258;2023-07-16T05:31:35;17.20;99.70
46898;DHT22;32646;50.958;6.258;2023-07-16T05:34:02;17.20;99.90
46898;DHT22;32646;50.958;6.258;2023-07-16T05:36:28;17.20;99.90
46898;DHT22;32646;50.958;6.258;2023-07-16T05:38:55;17.30;98.60
46898;DHT22;32646;50.958;6.258;2023-07-16T05:41:21;17.30;99.30
46898;DHT22;32646;50.958;6.258;2023-07-16T05:43:50;17.30;99.90
46898;DHT22;32646;50.958;6.258;2023-07-16T05:46:16;17.30;97.60
46898;DHT22;32646;50.958;6.258;2023-07-16T05:48:43;17.40;98.00
46898;DHT22;32646;50.958;6.258;2023-07-16T05:51:10;17.40;96.10
46898;DHT22;32646;50.958;6.258;2023-07-16T05:53:36;17.40;97.60
46898;DHT22;32646;50.958;6.258;2023-07-16T05:56:03;17.40;96.90
46898;DHT22;32646;50.958;6.258;2023-07-16T05:58:30;17.50;94.80
46898;DHT22;32646;50.958;6.258;2023-07-16T06:00:56;17.50;94.90
46898;DHT22;32646;50.958;6.258;2023-07-16T06:03:23;17.50;95.50
46898;DHT22;32646;50.958;6.258;2023-07-16T06:05:49;17.60;94.50
46898;DHT22;32646;50.958;6.258;2023-07-16T06:08:16;17.60;94.50
46898;DHT22;32646;50.958;6.258;2023-07-16T06:10:43;17.60;95.20
46898;DHT22;32646;50.958;6.258;2023-07-16T06:13:09;17.60;94.70
46898;DHT22;32646;50.958;6.258;2023-07-16T06:15:36;17.70;94.80
46898;DHT22;32646;50.958;6.258;2023-07-16T06:18:03;17.70;93.50
46898;DHT22;32646;50.958;6.258;2023-07-16T06:20:29;17.80;92.80
46898;DHT22;32646;50.958;6.258;2023-07-16T06:22:56;17.80;93.30
46898;DHT22;32646;50.958;6.258;2023-07-16T06:25:23;17.80;92.80
46898;DHT22;32646;50.958;6.258;2023-07-16T06:27:49;17.80;93.70
46898;DHT22;32646;50.958;6.258;2023-07-16T06:30:16;17.80;91.70
46898;DHT22;32646;50.958;6.258;2023-07-16T06:32:43;17.80;92.80
46898;DHT22;32646;50.958;6.258;2023-07-16T06:35:09;17.90;91.90
46898;DHT22;32646;50.958;6.258;2023-07-16T06:37:36;17.90;93.10
46898;DHT22;32646;50.958;6.258;2023-07-16T06:40:03;17.90;91.00
46898;DHT22;32646;50.958;6.258;2023-07-16T06:42:30;18.00;91.00
46898;DHT22;32646;50.958;6.258;2023-07-16T06:44:56;18.00;91.50
46898;DHT22;32646;50.958;6.258;2023-07-16T06:47:23;18.10;90.50
46898;DHT22;32646;50.958;6.258;2023-07-16T06:49:50;18.10;89.80
46898;DHT22;32646;50.958;6.258;2023-07-16T06:52:23;18.10;90.80
46898;DHT22;32646;50.958;6.258;2023-07-16T06:54:50;18.10;90.60
46898;DHT22;32646;50.958;6.258;2023-07-16T06:57:17;18.10;90.00
46898;DHT22;32646;50.958;6.258;2023-07-16T06:59:43;18.10;90.20
46898;DHT22;32646;50.958;6.258;2023-07-16T07:02:11;18.20;90.90
46898;DHT22;32646;50.958;6.258;2023-07-16T07:04:37;18.30;89.00
46898;DHT22;32646;50.958;6.258;2023-07-16T07:07:04;18.30;89.10
46898;DHT22;32646;50.958;6.258;2023-07-16T07:09:31;18.50;90.00
46898;DHT22;32646;50.958;6.258;2023-07-16T07:11:57;18.40;85.30
46898;DHT22;32646;50.958;6.258;2023-07-16T07:14:24;18.50;87.70
46898;DHT22;32646;50.958;6.258;2023-07-16T07:16:51;18.50;87.70
46898;DHT22;32646;50.958;6.258;2023-07-16T07:19:17;18.50;85.50
46898;DHT22;32646;50.958;6.258;2023-07-16T07:21:44;18.50;85.60
46898;DHT22;32646;50.958;6.258;2023-07-16T07:24:10;18.50;84.30
46898;DHT22;32646;50.958;6.258;2023-07-16T07:26:37;18.60;83.80
46898;DHT22;32646;50.958;6.258;2023-07-16T07:29:04;18.60;84.60
46898;DHT22;32646;50.958;6.258;2023-07-16T07:31:30;18.60;85.30
46898;DHT22;32646;50.958;6.258;2023-07-16T07:33:57;18.70;82.70
46898;DHT22;32646;50.958;6.258;2023-07-16T07:36:23;18.80;83.20
46898;DHT22;32646;50.958;6.258;2023-07-16T07:38:50;18.90;81.60
46898;DHT22;32646;50.958;6.258;2023-07-16T07:41:17;18.90;83.30
46898;DHT22;32646;50.958;6.258;2023-07-16T07:43:43;19.10;81.30
46898;DHT22;32646;50.958;6.258;2023-07-16T07:46:10;19.20;81.00
46898;DHT22;32646;50.958;6.258;2023-07-16T07:48:36;19.40;81.40
46898;DHT22;32646;50.958;6.258;2023-07-16T07:51:03;19.40;78.00
46898;DHT22;32646;50.958;6.258;2023-07-16T07:53:30;19.50;77.40
46898;DHT22;32646;50.958;6.258;2023-07-16T07:55:56;19.40;78.30
46898;DHT22;32646;50.958;6.258;2023-07-16T07:58:23;19.30;78.50
46898;DHT22;32646;50.958;6.258;2023-07-16T08:00:50;19.30;77.50
46898;DHT22;32646;50.958;6.258;2023-07-16T08:03:16;19.30;76.80
46898;DHT22;32646;50.958;6.258;2023-07-16T08:05:43;19.40;76.90
46898;DHT22;32646;50.958;6.258;2023-07-16T08:08:10;19.50;76.00
46898;DHT22;32646;50.958;6.258;2023-07-16T08:10:36;19.60;78.70
46898;DHT22;32646;50.958;6.258;2023-07-16T08:13:03;19.70;73.50
46898;DHT22;32646;50.958;6.258;2023-07-16T08:15:29;19.60;74.70
46898;DHT22;32646;50.958;6.258;2023-07-16T08:17:56;19.90;74.80
46898;DHT22;32646;50.958;6.258;2023-07-16T08:20:23;20.10;75.30
46898;DHT22;32646;50.958;6.258;2023-07-16T08:22:49;20.20;72.20
46898;DHT22;32646;50.958;6.258;2023-07-16T08:25:16;20.40;72.20
46898;DHT22;32646;50.958;6.258;2023-07-16T08:27:42;20.80;70.00
46898;DHT22;32646;50.958;6.258;2023-07-16T08:30:09;21.80;65.80
46898;DHT22;32646;50.958;6.258;2023-07-16T08:32:36;21.40;66.70
46898;DHT22;32646;50.958;6.258;2023-07-16T08:35:03;20.90;66.60
46898;DHT22;32646;50.958;6.258;2023-07-16T08:37:29;20.80;67.30
46898;DHT22;32646;50.958;6.258;2023-07-16T08:39:56;20.60;70.50
46898;DHT22;32646;50.958;6.258;2023-07-16T08:42:23;20.70;70.90
46898;DHT22;32646;50.958;6.258;2023-07-16T08:44:50;21.10;68.70
46898;DHT22;32646;50.958;6.258;2023-07-16T08:47:17;21.00;68.00
46898;DHT22;32646;50.958;6.258;2023-07-16T08:49:53;21.00;66.80
46898;DHT22;32646;50.958;6.258;2023-07-16T08:52:20;21.40;65.80
46898;DHT22;32646;50.958;6.258;2023-07-16T08:54:47;20.90;69.50
46898;DHT22;32646;50.958;6.258;2023-07-16T08:57:14;21.20;68.70
46898;DHT22;32646;50.958;6.258;2023-07-16T08:59:41;21.60;67.30
46898;DHT22;32646;50.958;6.258;2023-07-16T09:02:08;21.30;64.70
46898;DHT22;32646;50.958;6.258;2023-07-16T09:04:35;21.20;66.20
46898;DHT22;32646;50.958;6.258;2023-07-16T09:07:02;21.50;68.60
46898;DHT22;32646;50.958;6.258;2023-07-16T09:09:29;21.10;65.70
46898;DHT22;32646;50.958;6.258;2023-07-16T09:11:55;20.90;66.90
46898;DHT22;32646;50.958;6.258;2023-07-16T09:14:22;21.30;65.90
46898;DHT22;32646;50.958;6.258;2023-07-16T09:16:53;21.80;63.90
46898;DHT22;32646;50.958;6.258;2023-07-16T09:19:21;21.50;65.20
46898;DHT22;32646;50.958;6.258;2023-07-16T09:21:49;21.60;64.10
46898;DHT22;32646;50.958;6.258;2023-07-16T09:24:16;22.30;61.10
46898;DHT22;32646;50.958;6.258;2023-07-16T09:26:51;22.00;61.20
46898;DHT22;32646;50.958;6.258;2023-07-16T09:29:18;21.50;61.60
46898;DHT22;32646;50.958;6.258;2023-07-16T09:32:01;21.50;63.50
46898;DHT22;32646;50.958;6.258;2023-07-16T09:34:29;22.10;62.10
46898;DHT22;32646;50.958;6.258;2023-07-16T09:36:57;21.90;63.00
46898;DHT22;32646;50.958;6.258;2023-07-16T09:39:25;21.60;62.00
46898;DHT22;32646;50.958;6.258;2023-07-16T09:41:52;21.40;61.60
46898;DHT22;32646;50.958;6.258;2023-07-16T09:44:19;21.80;62.10
46898;DHT22;32646;50.958;6.258;2023-07-16T09:46:47;22.00;59.60
46898;DHT22;32646;50.958;6.258;2023-07-16T09:49:15;21.80;59.80
46898;DHT22;32646;50.958;6.258;2023-07-16T09:51:43;21.90;60.00
46898;DHT22;32646;50.958;6.258;2023-07-16T09:54:13;22.10;59.60
46898;DHT22;32646;50.958;6.258;2023-07-16T09:56:53;22.00;59.40
46898;DHT22;32646;50.958;6.258;2023-07-16T09:59:23;21.60;60.50
46898;DHT22;32646;50.958;6.258;2023-07-16T10:01:51;21.50;61.30
46898;DHT22;32646;50.958;6.258;2023-07-16T10:04:19;21.40;59.60
46898;DHT22;32646;50.958;6.258;2023-07-16T10:06:49;22.10;58.00
46898;DHT22;32646;50.958;6.258;2023-07-16T10:09:32;22.20;57.50
46898;DHT22;32646;50.958;6.258;2023-07-16T10:12:15;22.00;57.20
46898;DHT22;32646;50.958;6.258;2023-07-16T10:14:44;22.30;56.20
46898;DHT22;32646;50.958;6.258;2023-07-16T10:17:15;22.20;56.50
46898;DHT22;32646;50.958;6.258;2023-07-16T10:19:55;22.80;55.70
46898;DHT22;32646;50.958;6.258;2023-07-16T10:22:42;23.00;54.70
46898;DHT22;32646;50.958;6.258;2023-07-16T10:25:10;23.10;54.20
46898;DHT22;32646;50.958;6.258;2023-07-16T10:27:49;23.10;53.90
46898;DHT22;32646;50.958;6.258;2023-07-16T10:30:17;22.50;55.50
46898;DHT22;32646;50.958;6.258;2023-07-16T10:32:44;22.30;56.20
46898;DHT22;32646;50.958;6.258;2023-07-16T10:35:11;22.30;57.50
46898;DHT22;32646;50.958;6.258;2023-07-16T10:37:39;22.60;56.00
46898;DHT22;32646;50.958;6.258;2023-07-16T10:40:10;22.80;54.40
46898;DHT22;32646;50.958;6.258;2023-07-16T10:42:37;22.70;56.00
46898;DHT22;32646;50.958;6.258;2023-07-16T10:45:07;23.00;53.60
46898;DHT22;32646;50.958;6.258;2023-07-16T10:47:35;23.60;53.70
46898;DHT22;32646;50.958;6.258;2023-07-16T10:50:07;23.90;51.30
46898;DHT22;32646;50.958;6.258;2023-07-16T10:52:35;23.70;52.40
46898;DHT22;32646;50.958;6.258;2023-07-16T10:55:02;23.70;53.10
46898;DHT22;32646;50.958;6.258;2023-07-16T10:57:29;24.60;50.90
46898;DHT22;32646;50.958;6.258;2023-07-16T10:59:58;24.80;50.90
46898;DHT22;32646;50.958;6.258;2023-07-16T11:02:25;24.50;48.00
46898;DHT22;32646;50.958;6.258;2023-07-16T11:04:53;24.30;48.40
46898;DHT22;32646;50.958;6.258;2023-07-16T11:07:20;23.90;49.10
46898;DHT22;32646;50.958;6.258;2023-07-16T11:09:49;23.20;51.00
46898;DHT22;32646;50.958;6.258;2023-07-16T11:12:17;23.40;51.00
46898;DHT22;32646;50.958;6.258;2023-07-16T11:14:52;23.00;52.10
46898;DHT22;32646;50.958;6.258;2023-07-16T11:17:19;22.60;53.10
46898;DHT22;32646;50.958;6.258;2023-07-16T11:19:48;22.80;52.50
46898;DHT22;32646;50.958;6.258;2023-07-16T11:22:16;22.70;52.40
46898;DHT22;32646;50.958;6.258;2023-07-16T11:24:48;22.70;53.60
46898;DHT22;32646;50.958;6.258;2023-07-16T11:27:16;23.00;52.50
46898;DHT22;32646;50.958;6.258;2023-07-16T11:29:47;23.30;51.70
46898;DHT22;32646;50.958;6.258;2023-07-16T11:35:00;23.10;51.90
46898;DHT22;32646;50.958;6.258;2023-07-16T11:37:28;23.50;51.00
46898;DHT22;32646;50.958;6.258;2023-07-16T11:39:57;23.70;49.50
46898;DHT22;32646;50.958;6.258;2023-07-16T11:42:37;23.80;50.00
46898;DHT22;32646;50.958;6.258;2023-07-16T11:45:05;23.40;49.10
46898;DHT22;32646;50.958;6.258;2023-07-16T11:47:40;23.30;49.10
46898;DHT22;32646;50.958;6.258;2023-07-16T11:50:10;23.10;48.80
46898;DHT22;32646;50.958;6.258;2023-07-16T11:52:38;23.40;48.20
46898;DHT22;32646;50.958;6.258;2023-07-16T11:55:05;23.50;49.00
46898;DHT22;32646;50.958;6.258;2023-07-16T11:57:32;24.50;49.10
46898;DHT22;32646;50.958;6.258;2023-07-16T11:59:59;24.10;46.00
46898;DHT22;32646;50.958;6.258;2023-07-16T12:02:26;23.80;47.60
46898;DHT22;32646;50.958;6.258;2023-07-16T12:04:53;23.80;48.50
46898;DHT22;32646;50.958;6.258;2023-07-16T12:07:36;23.60;48.20
46898;DHT22;32646;50.958;6.258;2023-07-16T12:10:05;23.40;50.70
46898;DHT22;32646;50.958;6.258;2023-07-16T12:12:33;23.90;48.90
46898;DHT22;32646;50.958;6.258;2023-07-16T12:15:00;23.80;48.10
46898;DHT22;32646;50.958;6.258;2023-07-16T12:17:27;23.50;47.90
46898;DHT22;32646;50.958;6.258;2023-07-16T12:19:53;23.20;48.60
46898;DHT22;32646;50.958;6.258;2023-07-16T12:22:21;23.30;48.80
46898;DHT22;32646;50.958;6.258;2023-07-16T12:24:48;23.40;50.40
46898;DHT22;32646;50.958;6.258;2023-07-16T12:27:15;23.70;48.60
46898;DHT22;32646;50.958;6.258;2023-07-16T12:29:42;23.60;48.30
46898;DHT22;32646;50.958;6.258;2023-07-16T12:32:09;23.80;49.00
46898;DHT22;32646;50.958;6.258;2023-07-16T12:34:36;23.50;48.80
46898;DHT22;32646;50.958;6.258;2023-07-16T12:37:03;23.50;48.40
46898;DHT22;32646;50.958;6.258;2023-07-16T12:39:30;23.50;48.70
46898;DHT22;32646;50.958;6.258;2023-07-16T12:41:56;23.40;47.90
46898;DHT22;32646;50.958;6.258;2023-07-16T12:44:23;23.20;48.10
46898;DHT22;32646;50.958;6.258;2023-07-16T12:46:50;23.10;49.80
46898;DHT22;32646;50.958;6.258;2023-07-16T12:49:19;23.10;49.80
46898;DHT22;32646;50.958;6.258;2023-07-16T12:51:48;23.20;50.40
46898;DHT22;32646;50.958;6.258;2023-07-16T12:54:15;23.40;50.80
46898;DHT22;32646;50.958;6.258;2023-07-16T12:56:42;23.80;50.60
46898;DHT22;32646;50.958;6.258;2023-07-16T12:59:08;23.70;50.90
46898;DHT22;32646;50.958;6.258;2023-07-16T13:01:35;24.60;49.40
46898;DHT22;32646;50.958;6.258;2023-07-16T13:04:02;24.10;48.10
46898;DHT22;32646;50.958;6.258;2023-07-16T13:06:29;23.90;51.00
46898;DHT22;32646;50.958;6.258;2023-07-16T13:08:55;23.90;53.00
46898;DHT22;32646;50.958;6.258;2023-07-16T13:11:24;23.90;51.50
46898;DHT22;32646;50.958;6.258;2023-07-16T13:13:51;23.70;51.70
46898;DHT22;32646;50.958;6.258;2023-07-16T13:16:18;23.50;51.30
46898;DHT22;32646;50.958;6.258;2023-07-16T13:18:45;25.00;51.10
46898;DHT22;32646;50.958;6.258;2023-07-16T13:21:11;25.60;47.80
46898;DHT22;32646;50.958;6.258;2023-07-16T13:23:38;25.80;44.70
46898;DHT22;32646;50.958;6.258;2023-07-16T13:26:04;25.00;44.90
46898;DHT22;32646;50.958;6.258;2023-07-16T13:28:31;24.50;48.00
46898;DHT22;32646;50.958;6.258;2023-07-16T13:30:58;24.40;47.30
46898;DHT22;32646;50.958;6.258;2023-07-16T13:33:25;24.20;46.20
46898;DHT22;32646;50.958;6.258;2023-07-16T13:35:51;23.90;47.60
46898;DHT22;32646;50.958;6.258;2023-07-16T13:38:18;24.30;47.80
46898;DHT22;32646;50.958;6.258;2023-07-16T13:40:44;24.60;47.50
46898;DHT22;32646;50.958;6.258;2023-07-16T13:43:11;24.90;48.00
46898;DHT22;32646;50.958;6.258;2023-07-16T13:45:38;25.50;46.60
46898;DHT22;32646;50.958;6.258;2023-07-16T13:48:05;24.90;46.20
46898;DHT22;32646;50.958;6.258;2023-07-16T13:50:32;24.90;48.30
46898;DHT22;32646;50.958;6.258;2023-07-16T13:52:59;24.70;45.70
46898;DHT22;32646;50.958;6.258;2023-07-16T13:55:25;24.90;45.50
46898;DHT22;32646;50.958;6.258;2023-07-16T13:57:52;24.50;45.50
46898;DHT22;32646;50.958;6.258;2023-07-16T14:00:18;24.10;47.00
46898;DHT22;32646;50.958;6.258;2023-07-16T14:02:45;24.00;48.20
46898;DHT22;32646;50.958;6.258;2023-07-16T14:05:12;23.80;48.10
46898;DHT22;32646;50.958;6.258;2023-07-16T14:07:38;23.90;49.10
46898;DHT22;32646;50.958;6.258;2023-07-16T14:10:06;24.30;47.80
46898;DHT22;32646;50.958;6.258;2023-07-16T14:12:33;24.50;47.80
46898;DHT22;32646;50.958;6.258;2023-07-16T14:15:00;24.40;48.00
46898;DHT22;32646;50.958;6.258;2023-07-16T14:17:26;24.60;48.70
46898;DHT22;32646;50.958;6.258;2023-07-16T14:19:53;25.00;46.20
46898;DHT22;32646;50.958;6.258;2023-07-16T14:22:20;25.00;48.00
46898;DHT22;32646;50.958;6.258;2023-07-16T14:24:47;24.70;48.70
46898;DHT22;32646;50.958;6.258;2023-07-16T14:27:14;25.00;49.50
46898;DHT22;32646;50.958;6.258;2023-07-16T14:29:40;25.50;49.10
46898;DHT22;32646;50.958;6.258;2023-07-16T14:32:25;25.50;46.20
46898;DHT22;32646;50.958;6.258;2023-07-16T14:34:51;25.10;47.40
46898;DHT22;32646;50.958;6.258;2023-07-16T14:37:18;24.60;46.00
46898;DHT22;32646;50.958;6.258;2023-07-16T14:39:44;24.20;47.70
46898;DHT22;32646;50.958;6.258;2023-07-16T14:42:11;24.10;48.70
46898;DHT22;32646;50.958;6.258;2023-07-16T14:44:38;24.00;48.20
46898;DHT22;32646;50.958;6.258;2023-07-16T14:47:04;23.80;50.20
46898;DHT22;32646;50.958;6.258;2023-07-16T14:49:31;23.90;50.10
46898;DHT22;32646;50.958;6.258;2023-07-16T14:51:57;24.20;50.20
46898;DHT22;32646;50.958;6.258;2023-07-16T14:54:24;24.40;49.50
46898;DHT22;32646;50.958;6.258;2023-07-16T14:56:50;24.70;49.30
46898;DHT22;32646;50.958;6.258;2023-07-16T14:59:17;24.60;46.70
46898;DHT22;32646;50.958;6.258;2023-07-16T15:01:44;24.60;48.90
46898;DHT22;32646;50.958;6.258;2023-07-16T15:04:10;24.50;48.20
46898;DHT22;32646;50.958;6.258;2023-07-16T15:06:37;24.60;47.30
46898;DHT22;32646;50.958;6.258;2023-07-16T15:09:08;24.40;46.50
46898;DHT22;32646;50.958;6.258;2023-07-16T15:11:35;24.60;48.30
46898;DHT22;32646;50.958;6.258;2023-07-16T15:14:01;24.90;47.00
46898;DHT22;32646;50.958;6.258;2023-07-16T15:16:28;24.80;45.40
46898;DHT22;32646;50.958;6.258;2023-07-16T15:18:54;25.00;46.80
46898;DHT22;32646;50.958;6.258;2023-07-16T15:21:21;24.90;45.10
46898;DHT22;32646;50.958;6.258;2023-07-16T15:23:48;24.50;44.10
46898;DHT22;32646;50.958;6.258;2023-07-16T15:26:14;24.30;45.20
46898;DHT22;32646;50.958;6.258;2023-07-16T15:28:41;24.20;46.90
46898;DHT22;32646;50.958;6.258;2023-07-16T15:31:08;24.20;45.50
46898;DHT22;32646;50.958;6.258;2023-07-16T15:33:35;24.20;45.90
46898;DHT22;32646;50.958;6.258;2023-07-16T15:36:01;24.40;45.80
46898;DHT22;32646;50.958;6.258;2023-07-16T15:38:28;24.20;44.50
46898;DHT22;32646;50.958;6.258;2023-07-16T15:40:55;24.10;44.60
46898;DHT22;32646;50.958;6.258;2023-07-16T15:43:24;24.20;44.90